sensor_id;sensor_type;location;lat;lon;timestamp;temperature;humidity
79489;SHT31;68949;53.176;18.088;2023-04-03T00:01:14;1.13;66.64
79489;SHT31;68949;53.176;18.088;2023-04-03T00:03:42;1.09;66.81
79489;SHT31;68949;53.176;18.088;2023-04-03T00:06:10;1.03;67.01
79489;SHT31;68949;53.176;18.088;2023-04-03T00:08:38;1.02;66.94
79489;SHT31;68949;53.176;18.088;2023-04-03T00:11:06;1.04;66.96
79489;SHT31;68949;53.176;18.088;2023-04-03T00:13:35;1.07;66.98
79489;SHT31;68949;53.176;18.088;2023-04-03T00:16:02;1.09;66.99
79489;SHT31;68949;53.176;18.088;2023-04-03T00:18:29;1.11;66.75
79489;SHT31;68949;53.176;18.088;2023-04-03T00:20:56;1.11;66.76
79489;SHT31;68949;53.176;18.088;2023-04-03T00:23:23;1.10;66.95
79489;SHT31;68949;53.176;18.088;2023-04-03T00:25:50;1.06;66.87
79489;SHT31;68949;53.176;18.088;2023-04-03T00:28:18;1.01;67.16
79489;SHT31;68949;53.176;18.088;2023-04-03T00:30:48;0.98;67.10
79489;SHT31;68949;53.176;18.088;2023-04-03T00:33:16;0.91;67.36
79489;SHT31;68949;53.176;18.088;2023-04-03T00:35:43;0.85;67.43
79489;SHT31;68949;53.176;18.088;2023-04-03T00:38:10;0.77;67.56
79489;SHT31;68949;53.176;18.088;2023-04-03T00:40:38;0.71;67.68
79489;SHT31;68949;53.176;18.088;2023-04-03T00:43:29;0.65;67.86
79489;SHT31;68949;53.176;18.088;2023-04-03T00:45:56;0.58;68.02
79489;SHT31;68949;53.176;18.088;2023-04-03T00:48:29;0.55;68.09
79489;SHT31;68949;53.176;18.088;2023-04-03T00:51:11;0.54;68.18
79489;SHT31;68949;53.176;18.088;2023-04-03T00:53:49;0.56;68.28
79489;SHT31;68949;53.176;18.088;2023-04-03T00:56:22;0.58;68.28
79489;SHT31;68949;53.176;18.088;2023-04-03T00:59:02;0.60;68.06
79489;SHT31;68949;53.176;18.088;2023-04-03T01:01:34;0.61;68.15
79489;SHT31;68949;53.176;18.088;2023-04-03T01:04:03;0.61;68.17
79489;SHT31;68949;53.176;18.088;2023-04-03T01:06:34;0.61;68.17
79489;SHT31;68949;53.176;18.088;2023-04-03T01:09:07;0.60;68.27
79489;SHT31;68949;53.176;18.088;2023-04-03T01:11:34;0.57;68.29
79489;SHT31;68949;53.176;18.088;2023-04-03T01:14:01;0.52;68.59
79489;SHT31;68949;53.176;18.088;2023-04-03T01:16:29;0.47;68.69
79489;SHT31;68949;53.176;18.088;2023-04-03T01:18:58;0.42;68.86
79489;SHT31;68949;53.176;18.088;2023-04-03T01:26:48;0.31;69.27
79489;SHT31;68949;53.176;18.088;2023-04-03T01:29:17;0.34;69.21
79489;SHT31;68949;53.176;18.088;2023-04-03T01:31:55;0.37;69.30
79489;SHT31;68949;53.176;18.088;2023-04-03T01:34:25;0.43;69.25
79489;SHT31;68949;53.176;18.088;2023-04-03T01:36:54;0.47;69.16
79489;SHT31;68949;53.176;18.088;2023-04-03T01:39:21;0.53;69.10
79489;SHT31;68949;53.176;18.088;2023-04-03T01:41:49;0.55;69.01
79489;SHT31;68949;53.176;18.088;2023-04-03T01:44:29;0.55;68.99
79489;SHT31;68949;53.176;18.088;2023-04-03T01:46:56;0.55;69.15
79489;SHT31;68949;53.176;18.088;2023-04-03T01:49:23;0.54;69.15
79489;SHT31;68949;53.176;18.088;2023-04-03T01:51:50;0.53;69.23
79489;SHT31;68949;53.176;18.088;2023-04-03T01:54:17;0.52;69.33
79489;SHT31;68949;53.176;18.088;2023-04-03T01:56:44;0.49;69.39
79489;SHT31;68949;53.176;18.088;2023-04-03T01:59:11;0.48;69.45
79489;SHT31;68949;53.176;18.088;2023-04-03T02:01:37;0.45;69.62
79489;SHT31;68949;53.176;18.088;2023-04-03T02:04:04;0.44;69.70
79489;SHT31;68949;53.176;18.088;2023-04-03T02:06:31;0.44;69.62
79489;SHT31;68949;53.176;18.088;2023-04-03T02:08:58;0.49;69.65
79489;SHT31;68949;53.176;18.088;2023-04-03T02:11:25;0.53;69.65
79489;SHT31;68949;53.176;18.088;2023-04-03T02:13:52;0.57;69.43
79489;SHT31;68949;53.176;18.088;2023-04-03T02:16:19;0.59;69.41
79489;SHT31;68949;53.176;18.088;2023-04-03T02:18:46;0.60;69.42
79489;SHT31;68949;53.176;18.088;2023-04-03T02:21:12;0.59;69.40
79489;SHT31;68949;53.176;18.088;2023-04-03T02:23:39;0.58;69.63
79489;SHT31;68949;53.176;18.088;2023-04-03T02:26:07;0.57;69.60
79489;SHT31;68949;53.176;18.088;2023-04-03T02:28:37;0.57;69.60
79489;SHT31;68949;53.176;18.088;2023-04-03T02:31:05;0.56;69.68
79489;SHT31;68949;53.176;18.088;2023-04-03T02:33:33;0.53;69.81
79489;SHT31;68949;53.176;18.088;2023-04-03T02:36:06;0.50;70.05
79489;SHT31;68949;53.176;18.088;2023-04-03T02:38:34;0.47;70.14
79489;SHT31;68949;53.176;18.088;2023-04-03T02:41:05;0.49;70.11
79489;SHT31;68949;53.176;18.088;2023-04-03T02:43:36;0.53;70.01
79489;SHT31;68949;53.176;18.088;2023-04-03T02:46:04;0.57;69.97
79489;SHT31;68949;53.176;18.088;2023-04-03T02:48:32;0.62;69.95
79489;SHT31;68949;53.176;18.088;2023-04-03T02:50:59;0.64;69.90
79489;SHT31;68949;53.176;18.088;2023-04-03T02:53:27;0.64;70.00
79489;SHT31;68949;53.176;18.088;2023-04-03T02:55:54;0.63;70.02
79489;SHT31;68949;53.176;18.088;2023-04-03T02:58:21;0.63;69.99
79489;SHT31;68949;53.176;18.088;2023-04-03T03:00:48;0.59;70.10
79489;SHT31;68949;53.176;18.088;2023-04-03T03:03:14;0.56;70.17
79489;SHT31;68949;53.176;18.088;2023-04-03T03:05:41;0.52;70.23
79489;SHT31;68949;53.176;18.088;2023-04-03T03:08:08;0.50;70.34
79489;SHT31;68949;53.176;18.088;2023-04-03T03:10:34;0.46;70.50
79489;SHT31;68949;53.176;18.088;2023-04-03T03:13:01;0.43;70.51
79489;SHT31;68949;53.176;18.088;2023-04-03T03:15:29;0.41;70.54
79489;SHT31;68949;53.176;18.088;2023-04-03T03:17:56;0.42;70.52
79489;SHT31;68949;53.176;18.088;2023-04-03T03:20:23;0.45;70.50
79489;SHT31;68949;53.176;18.088;2023-04-03T03:22:50;0.47;70.42
79489;SHT31;68949;53.176;18.088;2023-04-03T03:25:16;0.50;70.45
79489;SHT31;68949;53.176;18.088;2023-04-03T03:27:43;0.49;70.47
79489;SHT31;68949;53.176;18.088;2023-04-03T03:30:10;0.44;70.50
79489;SHT31;68949;53.176;18.088;2023-04-03T03:32:37;0.40;70.58
79489;SHT31;68949;53.176;18.088;2023-04-03T03:35:04;0.36;70.56
79489;SHT31;68949;53.176;18.088;2023-04-03T03:37:31;0.30;70.72
79489;SHT31;68949;53.176;18.088;2023-04-03T03:39:58;0.23;70.86
79489;SHT31;68949;53.176;18.088;2023-04-03T03:42:25;0.19;70.87
79489;SHT31;68949;53.176;18.088;2023-04-03T03:44:51;0.15;71.01
79489;SHT31;68949;53.176;18.088;2023-04-03T03:47:19;0.11;71.07
79489;SHT31;68949;53.176;18.088;2023-04-03T03:49:46;0.12;71.00
79489;SHT31;68949;53.176;18.088;2023-04-03T03:52:13;0.13;70.94
79489;SHT31;68949;53.176;18.088;2023-04-03T03:54:40;0.17;70.90
79489;SHT31;68949;53.176;18.088;2023-04-03T03:57:07;0.20;70.89
79489;SHT31;68949;53.176;18.088;2023-04-03T03:59:33;0.21;70.75
79489;SHT31;68949;53.176;18.088;2023-04-03T04:02:00;0.21;70.70
79489;SHT31;68949;53.176;18.088;2023-04-03T04:04:27;0.20;70.82
79489;SHT31;68949;53.176;18.088;2023-04-03T04:06:55;0.18;70.80
79489;SHT31;68949;53.176;18.088;2023-04-03T04:09:22;0.17;70.84
79489;SHT31;68949;53.176;18.088;2023-04-03T04:11:49;0.15;70.83
79489;SHT31;68949;53.176;18.088;2023-04-03T04:14:16;0.13;70.87
79489;SHT31;68949;53.176;18.088;2023-04-03T04:16:43;0.12;70.88
79489;SHT31;68949;53.176;18.088;2023-04-03T04:19:14;0.11;70.89
79489;SHT31;68949;53.176;18.088;2023-04-03T04:21:41;0.09;70.96
79489;SHT31;68949;53.176;18.088;2023-04-03T04:24:08;0.08;70.96
79489;SHT31;68949;53.176;18.088;2023-04-03T04:26:35;0.07;71.00
79489;SHT31;68949;53.176;18.088;2023-04-03T04:29:02;0.08;70.99
79489;SHT31;68949;53.176;18.088;2023-04-03T04:31:32;0.10;71.00
79489;SHT31;68949;53.176;18.088;2023-04-03T04:33:59;0.16;70.83
79489;SHT31;68949;53.176;18.088;2023-04-03T04:36:26;0.19;70.74
79489;SHT31;68949;53.176;18.088;2023-04-03T04:38:53;0.22;70.65
79489;SHT31;68949;53.176;18.088;2023-04-03T04:41:20;0.24;70.58
79489;SHT31;68949;53.176;18.088;2023-04-03T04:43:49;0.22;70.64
79489;SHT31;68949;53.176;18.088;2023-04-03T04:46:17;0.21;70.58
79489;SHT31;68949;53.176;18.088;2023-04-03T04:48:48;0.21;70.58
79489;SHT31;68949;53.176;18.088;2023-04-03T04:51:15;0.21;70.61
79489;SHT31;68949;53.176;18.088;2023-04-03T04:53:42;0.20;70.67
79489;SHT31;68949;53.176;18.088;2023-04-03T04:56:11;0.20;70.65
79489;SHT31;68949;53.176;18.088;2023-04-03T04:58:38;0.21;70.51
79489;SHT31;68949;53.176;18.088;2023-04-03T05:01:08;0.21;70.43
79489;SHT31;68949;53.176;18.088;2023-04-03T05:03:41;0.26;70.36
79489;SHT31;68949;53.176;18.088;2023-04-03T05:06:08;0.31;70.16
79489;SHT31;68949;53.176;18.088;2023-04-03T05:08:35;0.40;70.03
79489;SHT31;68949;53.176;18.088;2023-04-03T05:11:03;0.46;69.79
79489;SHT31;68949;53.176;18.088;2023-04-03T05:13:30;0.53;69.52
79489;SHT31;68949;53.176;18.088;2023-04-03T05:15:57;0.54;69.40
79489;SHT31;68949;53.176;18.088;2023-04-03T05:18:24;0.57;69.20
79489;SHT31;68949;53.176;18.088;2023-04-03T05:20:52;0.55;69.20
79489;SHT31;68949;53.176;18.088;2023-04-03T05:23:20;0.57;69.20
79489;SHT31;68949;53.176;18.088;2023-04-03T05:25:47;0.59;69.09
79489;SHT31;68949;53.176;18.088;2023-04-03T05:28:15;0.60;69.10
79489;SHT31;68949;53.176;18.088;2023-04-03T05:30:42;0.63;68.98
79489;SHT31;68949;53.176;18.088;2023-04-03T05:33:09;0.66;68.95
79489;SHT31;68949;53.176;18.088;2023-04-03T05:35:41;0.68;68.85
79489;SHT31;68949;53.176;18.088;2023-04-03T05:38:11;0.70;68.66
79489;SHT31;68949;53.176;18.088;2023-04-03T05:40:38;0.72;68.73
79489;SHT31;68949;53.176;18.088;2023-04-03T05:43:06;0.76;68.72
79489;SHT31;68949;53.176;18.088;2023-04-03T05:45:35;0.83;68.72
79489;SHT31;68949;53.176;18.088;2023-04-03T05:48:02;0.86;68.45
79489;SHT31;68949;53.176;18.088;2023-04-03T05:50:29;0.89;68.26
79489;SHT31;68949;53.176;18.088;2023-04-03T05:52:56;0.96;68.10
79489;SHT31;68949;53.176;18.088;2023-04-03T05:55:26;1.08;68.16
79489;SHT31;68949;53.176;18.088;2023-04-03T05:57:53;1.21;67.93
79489;SHT31;68949;53.176;18.088;2023-04-03T06:00:20;1.31;67.46
79489;SHT31;68949;53.176;18.088;2023-04-03T06:02:53;1.40;67.25
79489;SHT31;68949;53.176;18.088;2023-04-03T06:05:22;1.48;67.02
79489;SHT31;68949;53.176;18.088;2023-04-03T06:07:50;1.54;66.92
79489;SHT31;68949;53.176;18.088;2023-04-03T06:10:17;1.57;66.60
79489;SHT31;68949;53.176;18.088;2023-04-03T06:12:44;1.56;66.29
79489;SHT31;68949;53.176;18.088;2023-04-03T06:15:11;1.54;65.76
79489;SHT31;68949;53.176;18.088;2023-04-03T06:17:40;1.53;65.77
79489;SHT31;68949;53.176;18.088;2023-04-03T06:20:08;1.54;65.77
79489;SHT31;68949;53.176;18.088;2023-04-03T06:22:36;1.57;65.78
79489;SHT31;68949;53.176;18.088;2023-04-03T06:25:03;1.56;65.65
79489;SHT31;68949;53.176;18.088;2023-04-03T06:27:31;1.57;65.55
79489;SHT31;68949;53.176;18.088;2023-04-03T06:29:58;1.56;65.16
79489;SHT31;68949;53.176;18.088;2023-04-03T06:32:24;1.52;64.80
79489;SHT31;68949;53.176;18.088;2023-04-03T06:34:51;1.53;65.40
79489;SHT31;68949;53.176;18.088;2023-04-03T06:37:20;1.59;65.49
79489;SHT31;68949;53.176;18.088;2023-04-03T06:39:48;1.63;64.98
79489;SHT31;68949;53.176;18.088;2023-04-03T06:42:15;1.67;64.86
79489;SHT31;68949;53.176;18.088;2023-04-03T06:44:51;1.73;64.73
79489;SHT31;68949;53.176;18.088;2023-04-03T06:47:18;1.76;64.18
79489;SHT31;68949;53.176;18.088;2023-04-03T06:49:45;1.75;64.27
79489;SHT31;68949;53.176;18.088;2023-04-03T06:52:11;1.74;64.16
79489;SHT31;68949;53.176;18.088;2023-04-03T06:54:39;1.75;64.57
79489;SHT31;68949;53.176;18.088;2023-04-03T06:57:07;1.79;64.68
79489;SHT31;68949;53.176;18.088;2023-04-03T06:59:34;1.83;64.37
79489;SHT31;68949;53.176;18.088;2023-04-03T07:02:02;1.88;64.23
79489;SHT31;68949;53.176;18.088;2023-04-03T07:04:29;1.93;64.26
79489;SHT31;68949;53.176;18.088;2023-04-03T07:06:57;1.98;64.07
79489;SHT31;68949;53.176;18.088;2023-04-03T07:09:23;2.02;63.79
79489;SHT31;68949;53.176;18.088;2023-04-03T07:11:50;2.06;63.77
79489;SHT31;68949;53.176;18.088;2023-04-03T07:14:17;2.11;63.70
79489;SHT31;68949;53.176;18.088;2023-04-03T07:16:44;2.16;63.54
79489;SHT31;68949;53.176;18.088;2023-04-03T07:19:11;2.20;63.09
79489;SHT31;68949;53.176;18.088;2023-04-03T07:21:38;2.25;63.48
79489;SHT31;68949;53.176;18.088;2023-04-03T07:24:05;2.31;63.55
79489;SHT31;68949;53.176;18.088;2023-04-03T07:26:32;2.34;62.75
79489;SHT31;68949;53.176;18.088;2023-04-03T07:28:59;2.35;62.36
79489;SHT31;68949;53.176;18.088;2023-04-03T07:31:26;2.36;61.86
79489;SHT31;68949;53.176;18.088;2023-04-03T07:33:52;2.35;61.43
79489;SHT31;68949;53.176;18.088;2023-04-03T07:36:20;2.38;61.43
79489;SHT31;68949;53.176;18.088;2023-04-03T07:38:48;2.39;60.59
79489;SHT31;68949;53.176;18.088;2023-04-03T07:41:16;2.40;60.62
79489;SHT31;68949;53.176;18.088;2023-04-03T07:43:46;2.40;60.02
79489;SHT31;68949;53.176;18.088;2023-04-03T07:46:13;2.43;59.85
79489;SHT31;68949;53.176;18.088;2023-04-03T07:48:40;2.44;59.07
79489;SHT31;68949;53.176;18.088;2023-04-03T07:51:06;2.46;58.43
79489;SHT31;68949;53.176;18.088;2023-04-03T07:53:33;2.50;58.52
79489;SHT31;68949;53.176;18.088;2023-04-03T07:56:00;2.56;58.16
79489;SHT31;68949;53.176;18.088;2023-04-03T07:58:28;2.62;57.93
79489;SHT31;68949;53.176;18.088;2023-04-03T08:00:56;2.64;57.32
79489;SHT31;68949;53.176;18.088;2023-04-03T08:03:23;2.65;56.85
79489;SHT31;68949;53.176;18.088;2023-04-03T08:05:50;2.67;56.59
79489;SHT31;68949;53.176;18.088;2023-04-03T08:08:18;2.70;56.52
79489;SHT31;68949;53.176;18.088;2023-04-03T08:10:51;2.69;56.47
79489;SHT31;68949;53.176;18.088;2023-04-03T08:13:20;2.70;55.75
79489;SHT31;68949;53.176;18.088;2023-04-03T08:15:48;2.70;55.71
79489;SHT31;68949;53.176;18.088;2023-04-03T08:18:15;2.71;55.97
79489;SHT31;68949;53.176;18.088;2023-04-03T08:20:43;2.74;55.75
79489;SHT31;68949;53.176;18.088;2023-04-03T08:23:10;2.78;55.76
79489;SHT31;68949;53.176;18.088;2023-04-03T08:25:40;2.85;55.51
79489;SHT31;68949;53.176;18.088;2023-04-03T08:28:09;2.87;55.38
79489;SHT31;68949;53.176;18.088;2023-04-03T08:30:40;2.88;55.07
79489;SHT31;68949;53.176;18.088;2023-04-03T08:33:09;2.88;55.51
79489;SHT31;68949;53.176;18.088;2023-04-03T08:35:40;2.88;54.76
79489;SHT31;68949;53.176;18.088;2023-04-03T08:38:09;2.87;55.26
79489;SHT31;68949;53.176;18.088;2023-04-03T08:40:36;2.90;55.47
79489;SHT31;68949;53.176;18.088;2023-04-03T08:45:52;2.98;54.17
79489;SHT31;68949;53.176;18.088;2023-04-03T08:48:29;3.05;54.44
79489;SHT31;68949;53.176;18.088;2023-04-03T08:51:05;3.14;53.69
79489;SHT31;68949;53.176;18.088;2023-04-03T08:54:21;3.18;53.49
79489;SHT31;68949;53.176;18.088;2023-04-03T08:56:45;3.22;52.77
79489;SHT31;68949;53.176;18.088;2023-04-03T08:59:24;3.24;51.63
79489;SHT31;68949;53.176;18.088;2023-04-03T09:01:56;3.22;52.76
79489;SHT31;68949;53.176;18.088;2023-04-03T09:04:28;3.23;53.49
79489;SHT31;68949;53.176;18.088;2023-04-03T09:07:02;3.23;53.72
79489;SHT31;68949;53.176;18.088;2023-04-03T09:09:40;3.22;53.85
79489;SHT31;68949;53.176;18.088;2023-04-03T09:14:57;3.27;53.44
79489;SHT31;68949;53.176;18.088;2023-04-03T09:23:58;3.27;52.39
79489;SHT31;68949;53.176;18.088;2023-04-03T09:26:31;3.27;52.58
79489;SHT31;68949;53.176;18.088;2023-04-03T09:29:14;3.30;52.61
79489;SHT31;68949;53.176;18.088;2023-04-03T09:31:47;3.38;52.49
79489;SHT31;68949;53.176;18.088;2023-04-03T09:34:30;3.49;52.82
79489;SHT31;68949;53.176;18.088;2023-04-03T09:37:03;3.56;52.31
79489;SHT31;68949;53.176;18.088;2023-04-03T09:39:51;3.57;51.99
79489;SHT31;68949;53.176;18.088;2023-04-03T09:42:21;3.63;52.30
79489;SHT31;68949;53.176;18.088;2023-04-03T09:44:54;3.74;52.59
79489;SHT31;68949;53.176;18.088;2023-04-03T09:52:53;3.98;50.56
79489;SHT31;68949;53.176;18.088;2023-04-03T09:55:21;4.04;50.59
79489;SHT31;68949;53.176;18.088;2023-04-03T09:58:00;4.12;50.73
79489;SHT31;68949;53.176;18.088;2023-04-03T10:00:33;4.19;49.79
79489;SHT31;68949;53.176;18.088;2023-04-03T10:03:04;4.24;50.40
79489;SHT31;68949;53.176;18.088;2023-04-03T10:05:46;4.34;50.96
79489;SHT31;68949;53.176;18.088;2023-04-03T10:10:44;4.42;50.90
79489;SHT31;68949;53.176;18.088;2023-04-03T10:13:14;4.50;50.78
79489;SHT31;68949;53.176;18.088;2023-04-03T10:16:01;4.55;50.16
79489;SHT31;68949;53.176;18.088;2023-04-03T10:21:27;4.63;49.54
79489;SHT31;68949;53.176;18.088;2023-04-03T10:24:10;4.68;49.91
79489;SHT31;68949;53.176;18.088;2023-04-03T10:32:58;4.65;48.23
79489;SHT31;68949;53.176;18.088;2023-04-03T10:36:00;4.71;48.76
79489;SHT31;68949;53.176;18.088;2023-04-03T10:48:07;4.82;47.07
79489;SHT31;68949;53.176;18.088;2023-04-03T10:51:06;4.78;47.77
79489;SHT31;68949;53.176;18.088;2023-04-03T10:56:56;4.82;47.94
79489;SHT31;68949;53.176;18.088;2023-04-03T10:59:33;4.93;48.31
79489;SHT31;68949;53.176;18.088;2023-04-03T11:02:24;4.99;48.16
79489;SHT31;68949;53.176;18.088;2023-04-03T11:04:55;5.02;48.18
79489;SHT31;68949;53.176;18.088;2023-04-03T11:07:37;4.99;47.83
79489;SHT31;68949;53.176;18.088;2023-04-03T11:10:18;4.95;46.66
79489;SHT31;68949;53.176;18.088;2023-04-03T11:13:13;4.91;46.79
79489;SHT31;68949;53.176;18.088;2023-04-03T11:15:47;4.93;47.38
79489;SHT31;68949;53.176;18.088;2023-04-03T11:18:23;4.94;47.10
79489;SHT31;68949;53.176;18.088;2023-04-03T11:23:34;5.08;46.64
79489;SHT31;68949;53.176;18.088;2023-04-03T11:26:07;5.16;46.69
79489;SHT31;68949;53.176;18.088;2023-04-03T11:28:42;5.27;46.46
79489;SHT31;68949;53.176;18.088;2023-04-03T11:31:12;5.29;45.76
79489;SHT31;68949;53.176;18.088;2023-04-03T11:34:19;5.35;46.96
79489;SHT31;68949;53.176;18.088;2023-04-03T11:37:13;5.52;46.77
79489;SHT31;68949;53.176;18.088;2023-04-03T11:40:02;5.65;46.35
79489;SHT31;68949;53.176;18.088;2023-04-03T11:42:54;5.73;46.50
79489;SHT31;68949;53.176;18.088;2023-04-03T11:46:15;5.87;46.89
79489;SHT31;68949;53.176;18.088;2023-04-03T11:50:55;6.08;45.64
79489;SHT31;68949;53.176;18.088;2023-04-03T11:53:28;6.03;45.06
79489;SHT31;68949;53.176;18.088;2023-04-03T11:56:26;6.04;45.38
79489;SHT31;68949;53.176;18.088;2023-04-03T12:01:43;6.18;44.42
79489;SHT31;68949;53.176;18.088;2023-04-03T12:04:15;6.16;44.46
79489;SHT31;68949;53.176;18.088;2023-04-03T12:11:49;5.96;45.11
79489;SHT31;68949;53.176;18.088;2023-04-03T12:14:16;5.89;44.92
79489;SHT31;68949;53.176;18.088;2023-04-03T12:16:46;5.80;44.81
79489;SHT31;68949;53.176;18.088;2023-04-03T12:29:39;5.79;44.65
79489;SHT31;68949;53.176;18.088;2023-04-03T12:38:22;5.54;44.80
79489;SHT31;68949;53.176;18.088;2023-04-03T12:41:21;5.49;45.46
79489;SHT31;68949;53.176;18.088;2023-04-03T12:44:10;5.52;45.98
79489;SHT31;68949;53.176;18.088;2023-04-03T12:46:43;5.59;45.54
79489;SHT31;68949;53.176;18.088;2023-04-03T12:51:46;5.73;44.25
79489;SHT31;68949;53.176;18.088;2023-04-03T12:54:22;5.82;44.23
79489;SHT31;68949;53.176;18.088;2023-04-03T12:59:56;5.84;43.87
79489;SHT31;68949;53.176;18.088;2023-04-03T13:04:57;5.90;43.27
79489;SHT31;68949;53.176;18.088;2023-04-03T13:07:33;5.82;43.13
79489;SHT31;68949;53.176;18.088;2023-04-03T13:12:50;5.71;43.19
79489;SHT31;68949;53.176;18.088;2023-04-03T13:15:42;5.70;43.67
79489;SHT31;68949;53.176;18.088;2023-04-03T13:18:48;5.75;43.52
79489;SHT31;68949;53.176;18.088;2023-04-03T13:21:13;5.84;43.91
79489;SHT31;68949;53.176;18.088;2023-04-03T13:23:45;5.85;44.70
79489;SHT31;68949;53.176;18.088;2023-04-03T13:26:20;5.90;44.10
79489;SHT31;68949;53.176;18.088;2023-04-03T13:28:50;5.86;43.03
79489;SHT31;68949;53.176;18.088;2023-04-03T13:31:19;5.77;42.71
79489;SHT31;68949;53.176;18.088;2023-04-03T13:36:46;5.85;43.92
79489;SHT31;68949;53.176;18.088;2023-04-03T13:39:28;5.91;44.62
79489;SHT31;68949;53.176;18.088;2023-04-03T13:42:00;5.96;45.63
79489;SHT31;68949;53.176;18.088;2023-04-03T13:44:49;5.91;45.66
79489;SHT31;68949;53.176;18.088;2023-04-03T13:47:53;5.86;46.04
79489;SHT31;68949;53.176;18.088;2023-04-03T13:50:49;5.82;45.54
79489;SHT31;68949;53.176;18.088;2023-04-03T13:53:21;5.84;44.38
79489;SHT31;68949;53.176;18.088;2023-04-03T13:58:36;5.87;45.09
79489;SHT31;68949;53.176;18.088;2023-04-03T14:01:20;5.96;45.24
79489;SHT31;68949;53.176;18.088;2023-04-03T14:03:55;6.03;45.42
79489;SHT31;68949;53.176;18.088;2023-04-03T14:06:26;6.16;44.80
79489;SHT31;68949;53.176;18.088;2023-04-03T14:08:53;6.26;44.25
79489;SHT31;68949;53.176;18.088;2023-04-03T14:11:29;6.38;42.87
79489;SHT31;68949;53.176;18.088;2023-04-03T14:13:58;6.37;42.76
79489;SHT31;68949;53.176;18.088;2023-04-03T14:16:32;6.26;43.55
79489;SHT31;68949;53.176;18.088;2023-04-03T14:19:04;6.14;44.29
79489;SHT31;68949;53.176;18.088;2023-04-03T14:21:31;6.03;45.34
79489;SHT31;68949;53.176;18.088;2023-04-03T14:23:58;5.94;45.72
79489;SHT31;68949;53.176;18.088;2023-04-03T14:26:28;5.85;45.29
79489;SHT31;68949;53.176;18.088;2023-04-03T14:28:56;5.76;44.65
79489;SHT31;68949;53.176;18.088;2023-04-03T14:31:23;5.68;44.89
79489;SHT31;68949;53.176;18.088;2023-04-03T14:33:50;5.65;44.75
79489;SHT31;68949;53.176;18.088;2023-04-03T14:36:18;5.59;44.81
79489;SHT31;68949;53.176;18.088;2023-04-03T14:38:49;5.54;44.78
79489;SHT31;68949;53.176;18.088;2023-04-03T14:41:18;5.52;44.88
79489;SHT31;68949;53.176;18.088;2023-04-03T14:43:48;5.58;45.29
79489;SHT31;68949;53.176;18.088;2023-04-03T14:46:18;5.67;44.76
79489;SHT31;68949;53.176;18.088;2023-04-03T14:48:53;5.72;44.72
79489;SHT31;68949;53.176;18.088;2023-04-03T14:51:20;5.75;44.68
79489;SHT31;68949;53.176;18.088;2023-04-03T14:53:47;5.77;44.31
79489;SHT31;68949;53.176;18.088;2023-04-03T14:56:22;5.78;44.03
79489;SHT31;68949;53.176;18.088;2023-04-03T14:58:55;5.78;43.96
79489;SHT31;68949;53.176;18.088;2023-04-03T15:01:26;5.74;43.88
79489;SHT31;68949;53.176;18.088;2023-04-03T15:03:54;5.78;43.82
79489;SHT31;68949;53.176;18.088;2023-04-03T15:06:21;5.89;43.82
79489;SHT31;68949;53.176;18.088;2023-04-03T15:08:48;6.16;43.83
79489;SHT31;68949;53.176;18.088;2023-04-03T15:11:15;7.31;43.24
79489;SHT31;68949;53.176;18.088;2023-04-03T15:13:41;9.01;41.83
79489;SHT31;68949;53.176;18.088;2023-04-03T15:16:18;10.76;40.16
79489;SHT31;68949;53.176;18.088;2023-04-03T15:18:46;12.26;37.82
79489;SHT31;68949;53.176;18.088;2023-04-03T15:21:14;13.37;36.91
79489;SHT31;68949;53.176;18.088;2023-04-03T15:23:41;14.05;36.00
79489;SHT31;68949;53.176;18.088;2023-04-03T15:26:09;14.92;35.02
79489;SHT31;68949;53.176;18.088;2023-04-03T15:28:37;15.53;33.53
79489;SHT31;68949;53.176;18.088;2023-04-03T15:31:06;14.81;33.77
79489;SHT31;68949;53.176;18.088;2023-04-03T15:33:34;13.95;34.08
79489;SHT31;68949;53.176;18.088;2023-04-03T15:36:02;12.88;34.75
79489;SHT31;68949;53.176;18.088;2023-04-03T15:38:30;12.03;34.70
79489;SHT31;68949;53.176;18.088;2023-04-03T15:40:56;11.81;34.30
79489;SHT31;68949;53.176;18.088;2023-04-03T15:43:23;12.28;33.98
79489;SHT31;68949;53.176;18.088;2023-04-03T15:45:50;12.08;34.45
79489;SHT31;68949;53.176;18.088;2023-04-03T15:48:17;12.33;33.78
79489;SHT31;68949;53.176;18.088;2023-04-03T15:50:44;11.37;34.81
79489;SHT31;68949;53.176;18.088;2023-04-03T15:53:11;10.64;35.40
79489;SHT31;68949;53.176;18.088;2023-04-03T15:55:38;10.13;36.17
79489;SHT31;68949;53.176;18.088;2023-04-03T15:58:05;10.11;35.60
79489;SHT31;68949;53.176;18.088;2023-04-03T16:00:32;10.42;35.30
79489;SHT31;68949;53.176;18.088;2023-04-03T16:03:02;11.37;34.22
79489;SHT31;68949;53.176;18.088;2023-04-03T16:05:35;12.11;33.75
79489;SHT31;68949;53.176;18.088;2023-04-03T16:08:04;12.01;32.93
79489;SHT31;68949;53.176;18.088;2023-04-03T16:10:37;11.15;33.21
79489;SHT31;68949;53.176;18.088;2023-04-03T16:13:05;10.41;33.11
79489;SHT31;68949;53.176;18.088;2023-04-03T16:15:32;9.76;33.88
79489;SHT31;68949;53.176;18.088;2023-04-03T16:18:01;9.20;34.35
79489;SHT31;68949;53.176;18.088;2023-04-03T16:20:29;8.67;34.27
79489;SHT31;68949;53.176;18.088;2023-04-03T16:22:57;8.16;35.09
79489;SHT31;68949;53.176;18.088;2023-04-03T16:25:26;7.78;35.77
79489;SHT31;68949;53.176;18.088;2023-04-03T16:27:53;7.43;36.51
79489;SHT31;68949;53.176;18.088;2023-04-03T16:30:20;7.14;38.05
79489;SHT31;68949;53.176;18.088;2023-04-03T16:32:47;6.88;38.72
79489;SHT31;68949;53.176;18.088;2023-04-03T16:35:14;6.55;38.91
79489;SHT31;68949;53.176;18.088;2023-04-03T16:37:41;6.26;39.58
79489;SHT31;68949;53.176;18.088;2023-04-03T16:40:08;5.96;40.04
79489;SHT31;68949;53.176;18.088;2023-04-03T16:42:35;5.74;40.74
79489;SHT31;68949;53.176;18.088;2023-04-03T16:45:02;5.57;41.25
79489;SHT31;68949;53.176;18.088;2023-04-03T16:47:32;5.34;41.73
79489;SHT31;68949;53.176;18.088;2023-04-03T16:49:59;5.17;42.23
79489;SHT31;68949;53.176;18.088;2023-04-03T16:52:26;5.03;42.57
79489;SHT31;68949;53.176;18.088;2023-04-03T16:54:53;4.91;42.96
79489;SHT31;68949;53.176;18.088;2023-04-03T16:57:22;4.79;43.34
79489;SHT31;68949;53.176;18.088;2023-04-03T16:59:51;4.69;43.61
79489;SHT31;68949;53.176;18.088;2023-04-03T17:02:22;4.60;43.95
79489;SHT31;68949;53.176;18.088;2023-04-03T17:04:53;4.52;44.49
79489;SHT31;68949;53.176;18.088;2023-04-03T17:07:20;4.39;44.65
79489;SHT31;68949;53.176;18.088;2023-04-03T17:09:49;4.30;44.92
79489;SHT31;68949;53.176;18.088;2023-04-03T17:12:16;4.22;45.17
79489;SHT31;68949;53.176;18.088;2023-04-03T17:14:43;4.14;45.62
79489;SHT31;68949;53.176;18.088;2023-04-03T17:17:10;4.05;45.92
79489;SHT31;68949;53.176;18.088;2023-04-03T17:19:37;3.97;46.28
79489;SHT31;68949;53.176;18.088;2023-04-03T17:22:06;3.89;46.49
79489;SHT31;68949;53.176;18.088;2023-04-03T17:24:35;3.83;46.73